< < Back
Terminal Aerodrome Forecast


Current Version              Previous Versions:   1  2  3  4  5  6  7  8  9  

Terminal Aerodrome Forecast

876
FTUS42 KGSP 011740
TAFHKY
TAF
KHKY 011740Z 0118/0218 20009KT P6SM VCSH OVC012
     FM012000 20009KT P6SM VCTS BKN030CB
      TEMPO 0121/0201 4SM -SHRA OVC025
     FM020300 21004KT P6SM SCT080 BKN250
     FM021000 24003KT 4SM BR FEW006 SCT010
     FM021600 21006KT P6SM BKN045=



Latest METAR

468
SAUS70 KWBC 020600 RRI
MTRHKY
METAR KHKY 020553Z AUTO VRB04KT 10SM OVC007 19/18 A3001 RMK AO2 SLP143
T01890183 10206 20183 56005


USA.gov is the U.S. government's official web portal to all federal, state and local government web resources and services.